Current Weather

Ambodedjo

Ambodedjo, Mali (GAMB)

Report from: Monday, May 23, 2022 6:00 AM GMT
Current time: Monday, May 23, 2022 7:32 AM GMT

Nearby weather
Weather history
Weather forecast

Temperature30.0°C (86.0°F)
Heat index31.5°C (88.6°F)
Dew point19.0°C (66.2°F)
Winds 10 kts (5.1 m/s, 11.5 mph) East-Southeast (120°)
Visibility3.7 mi. (6 km)
Clouds Few clouds 3,000 ft. (914 m)
Few clouds with cumulonimbus 4,000 ft. (1,219 m)
Altimeter29.88 in.Hg (1012 mB)
Relative humidity52 %
Density altitude2,060 ft. (628 m)
Flight conditions Marginal Visual Meteorological Conditions
Raw dataGAMB 230600Z 12010KT 6000 FEW030 FEW040CB 30/19 Q1012 RETS
An error has occurred. This application may no longer respond until reloaded. Reload 🗙